sensor_id;sensor_type;location;lat;lon;timestamp;P1;durP1;ratioP1;P2;durP2;ratioP2
13687;SDS011;6916;51.504;7.416;2023-10-08T00:00:41;6.80;;;3.17;;
13687;SDS011;6916;51.504;7.416;2023-10-08T00:10:47;6.00;;;2.95;;
13687;SDS011;6916;51.504;7.416;2023-10-08T00:20:50;6.75;;;3.63;;
13687;SDS011;6916;51.504;7.416;2023-10-08T00:30:58;8.18;;;2.90;;
13687;SDS011;6916;51.504;7.416;2023-10-08T00:41:07;8.65;;;3.45;;
13687;SDS011;6916;51.504;7.416;2023-10-08T00:51:09;8.13;;;3.20;;
13687;SDS011;6916;51.504;7.416;2023-10-08T01:01:26;4.70;;;2.78;;
13687;SDS011;6916;51.504;7.416;2023-10-08T01:11:32;5.57;;;2.80;;
13687;SDS011;6916;51.504;7.416;2023-10-08T01:21:47;7.95;;;3.20;;
13687;SDS011;6916;51.504;7.416;2023-10-08T01:31:50;5.72;;;2.80;;
13687;SDS011;6916;51.504;7.416;2023-10-08T01:41:53;7.82;;;3.67;;
13687;SDS011;6916;51.504;7.416;2023-10-08T01:51:56;7.55;;;3.22;;
13687;SDS011;6916;51.504;7.416;2023-10-08T02:01:58;9.00;;;3.33;;
13687;SDS011;6916;51.504;7.416;2023-10-08T02:12:01;6.68;;;3.22;;
13687;SDS011;6916;51.504;7.416;2023-10-08T02:22:03;9.43;;;3.40;;
13687;SDS011;6916;51.504;7.416;2023-10-08T02:32:11;5.65;;;3.17;;
13687;SDS011;6916;51.504;7.416;2023-10-08T02:42:14;7.70;;;3.50;;
13687;SDS011;6916;51.504;7.416;2023-10-08T02:52:18;8.07;;;3.90;;
13687;SDS011;6916;51.504;7.416;2023-10-08T03:02:20;8.68;;;3.63;;
13687;SDS011;6916;51.504;7.416;2023-10-08T03:12:24;7.70;;;3.65;;
13687;SDS011;6916;51.504;7.416;2023-10-08T03:22:26;6.70;;;3.30;;
13687;SDS011;6916;51.504;7.416;2023-10-08T03:32:37;9.68;;;3.63;;
13687;SDS011;6916;51.504;7.416;2023-10-08T03:42:41;7.13;;;3.83;;
13687;SDS011;6916;51.504;7.416;2023-10-08T03:52:50;7.50;;;4.03;;
13687;SDS011;6916;51.504;7.416;2023-10-08T04:02:52;11.80;;;4.30;;
13687;SDS011;6916;51.504;7.416;2023-10-08T04:12:59;10.10;;;3.72;;
13687;SDS011;6916;51.504;7.416;2023-10-08T04:23:01;7.45;;;3.80;;
13687;SDS011;6916;51.504;7.416;2023-10-08T04:33:07;8.38;;;3.63;;
13687;SDS011;6916;51.504;7.416;2023-10-08T04:43:12;4.97;;;3.00;;
13687;SDS011;6916;51.504;7.416;2023-10-08T04:53:17;7.38;;;3.63;;
13687;SDS011;6916;51.504;7.416;2023-10-08T05:03:28;9.23;;;3.42;;
13687;SDS011;6916;51.504;7.416;2023-10-08T05:13:45;9.30;;;3.47;;
13687;SDS011;6916;51.504;7.416;2023-10-08T05:24:01;11.30;;;4.25;;
13687;SDS011;6916;51.504;7.416;2023-10-08T05:34:16;12.18;;;3.75;;
13687;SDS011;6916;51.504;7.416;2023-10-08T05:44:23;8.35;;;3.33;;
13687;SDS011;6916;51.504;7.416;2023-10-08T05:54:40;10.52;;;4.05;;
13687;SDS011;6916;51.504;7.416;2023-10-08T06:05:09;9.80;;;4.25;;
13687;SDS011;6916;51.504;7.416;2023-10-08T06:15:21;7.13;;;3.80;;
13687;SDS011;6916;51.504;7.416;2023-10-08T06:25:43;10.10;;;3.70;;
13687;SDS011;6916;51.504;7.416;2023-10-08T06:35:55;10.52;;;4.72;;
13687;SDS011;6916;51.504;7.416;2023-10-08T06:46:02;11.57;;;3.97;;
13687;SDS011;6916;51.504;7.416;2023-10-08T06:56:09;8.68;;;4.45;;
13687;SDS011;6916;51.504;7.416;2023-10-08T07:06:12;7.82;;;3.45;;
13687;SDS011;6916;51.504;7.416;2023-10-08T07:16:27;6.40;;;4.75;;
13687;SDS011;6916;51.504;7.416;2023-10-08T07:26:28;5.88;;;1.55;;
13687;SDS011;6916;51.504;7.416;2023-10-08T07:36:37;3.27;;;1.47;;
13687;SDS011;6916;51.504;7.416;2023-10-08T07:46:39;3.45;;;2.47;;
13687;SDS011;6916;51.504;7.416;2023-10-08T07:56:42;4.55;;;2.58;;
13687;SDS011;6916;51.504;7.416;2023-10-08T08:06:44;8.88;;;2.40;;
13687;SDS011;6916;51.504;7.416;2023-10-08T08:16:51;4.33;;;1.73;;
13687;SDS011;6916;51.504;7.416;2023-10-08T08:26:52;2.67;;;1.50;;
13687;SDS011;6916;51.504;7.416;2023-10-08T08:37:09;3.03;;;1.70;;
13687;SDS011;6916;51.504;7.416;2023-10-08T08:47:12;0.85;;;0.57;;
13687;SDS011;6916;51.504;7.416;2023-10-08T08:57:18;1.40;;;0.30;;
13687;SDS011;6916;51.504;7.416;2023-10-08T09:07:21;1.70;;;0.50;;
13687;SDS011;6916;51.504;7.416;2023-10-08T09:17:26;0.95;;;0.10;;
13687;SDS011;6916;51.504;7.416;2023-10-08T09:27:27;1.17;;;0.52;;
13687;SDS011;6916;51.504;7.416;2023-10-08T09:37:32;1.80;;;0.38;;
13687;SDS011;6916;51.504;7.416;2023-10-08T09:47:35;1.60;;;0.30;;
13687;SDS011;6916;51.504;7.416;2023-10-08T09:57:39;2.88;;;0.65;;
13687;SDS011;6916;51.504;7.416;2023-10-08T10:07:41;3.08;;;0.47;;
13687;SDS011;6916;51.504;7.416;2023-10-08T10:17:46;1.65;;;0.40;;
13687;SDS011;6916;51.504;7.416;2023-10-08T10:38:25;1.23;;;0.60;;
13687;SDS011;6916;51.504;7.416;2023-10-08T10:48:27;1.88;;;0.20;;
13687;SDS011;6916;51.504;7.416;2023-10-08T10:58:36;1.53;;;0.20;;
13687;SDS011;6916;51.504;7.416;2023-10-08T11:08:40;0.47;;;0.20;;
13687;SDS011;6916;51.504;7.416;2023-10-08T11:18:47;0.30;;;0.20;;
13687;SDS011;6916;51.504;7.416;2023-10-08T11:28:50;0.75;;;0.20;;
13687;SDS011;6916;51.504;7.416;2023-10-08T11:38:53;0.98;;;0.15;;
13687;SDS011;6916;51.504;7.416;2023-10-08T11:49:01;1.20;;;0.17;;
13687;SDS011;6916;51.504;7.416;2023-10-08T11:59:06;1.90;;;0.20;;
13687;SDS011;6916;51.504;7.416;2023-10-08T12:09:09;2.67;;;0.10;;
13687;SDS011;6916;51.504;7.416;2023-10-08T12:19:14;0.93;;;0.15;;
13687;SDS011;6916;51.504;7.416;2023-10-08T12:29:17;0.65;;;0.20;;
13687;SDS011;6916;51.504;7.416;2023-10-08T12:39:20;1.58;;;0.30;;
13687;SDS011;6916;51.504;7.416;2023-10-08T12:49:28;0.45;;;0.10;;
13687;SDS011;6916;51.504;7.416;2023-10-08T12:59:35;0.17;;;0.10;;
13687;SDS011;6916;51.504;7.416;2023-10-08T13:09:38;0.82;;;0.20;;
13687;SDS011;6916;51.504;7.416;2023-10-08T13:19:41;1.27;;;0.20;;
13687;SDS011;6916;51.504;7.416;2023-10-08T13:29:46;1.63;;;0.47;;
13687;SDS011;6916;51.504;7.416;2023-10-08T13:39:49;1.40;;;0.25;;
13687;SDS011;6916;51.504;7.416;2023-10-08T13:49:50;2.20;;;0.35;;
13687;SDS011;6916;51.504;7.416;2023-10-08T13:59:54;1.77;;;0.40;;
13687;SDS011;6916;51.504;7.416;2023-10-08T14:09:56;1.83;;;0.30;;
13687;SDS011;6916;51.504;7.416;2023-10-08T14:20:00;1.30;;;0.30;;
13687;SDS011;6916;51.504;7.416;2023-10-08T14:30:08;3.45;;;0.40;;
13687;SDS011;6916;51.504;7.416;2023-10-08T14:40:16;1.42;;;0.35;;
13687;SDS011;6916;51.504;7.416;2023-10-08T14:50:32;1.45;;;0.82;;
13687;SDS011;6916;51.504;7.416;2023-10-08T15:00:35;4.90;;;1.40;;
13687;SDS011;6916;51.504;7.416;2023-10-08T15:10:37;5.40;;;1.23;;
13687;SDS011;6916;51.504;7.416;2023-10-08T15:20:40;1.60;;;0.63;;
13687;SDS011;6916;51.504;7.416;2023-10-08T15:30:43;1.85;;;0.82;;
13687;SDS011;6916;51.504;7.416;2023-10-08T15:40:46;1.52;;;0.85;;
13687;SDS011;6916;51.504;7.416;2023-10-08T15:50:49;2.90;;;1.10;;
13687;SDS011;6916;51.504;7.416;2023-10-08T16:00:53;2.83;;;1.23;;
13687;SDS011;6916;51.504;7.416;2023-10-08T16:10:54;5.57;;;1.65;;
13687;SDS011;6916;51.504;7.416;2023-10-08T16:20:57;4.78;;;1.50;;
13687;SDS011;6916;51.504;7.416;2023-10-08T16:31:00;2.35;;;1.17;;
13687;SDS011;6916;51.504;7.416;2023-10-08T16:41:05;2.72;;;1.10;;
13687;SDS011;6916;51.504;7.416;2023-10-08T16:51:08;1.75;;;0.60;;
13687;SDS011;6916;51.504;7.416;2023-10-08T17:01:11;3.20;;;0.90;;
13687;SDS011;6916;51.504;7.416;2023-10-08T17:11:14;2.35;;;1.00;;
13687;SDS011;6916;51.504;7.416;2023-10-08T17:21:17;2.03;;;1.05;;
13687;SDS011;6916;51.504;7.416;2023-10-08T17:31:20;6.43;;;2.17;;
13687;SDS011;6916;51.504;7.416;2023-10-08T17:41:25;2.30;;;0.90;;
13687;SDS011;6916;51.504;7.416;2023-10-08T17:51:26;3.20;;;0.90;;
13687;SDS011;6916;51.504;7.416;2023-10-08T18:01:31;3.28;;;1.50;;
13687;SDS011;6916;51.504;7.416;2023-10-08T18:11:33;3.42;;;1.10;;
13687;SDS011;6916;51.504;7.416;2023-10-08T18:21:37;3.83;;;1.65;;
13687;SDS011;6916;51.504;7.416;2023-10-08T18:31:39;4.40;;;1.92;;
13687;SDS011;6916;51.504;7.416;2023-10-08T18:41:42;3.72;;;1.38;;
13687;SDS011;6916;51.504;7.416;2023-10-08T18:51:44;2.40;;;1.67;;
13687;SDS011;6916;51.504;7.416;2023-10-08T19:01:48;6.97;;;1.98;;
13687;SDS011;6916;51.504;7.416;2023-10-08T19:11:51;4.97;;;2.30;;
13687;SDS011;6916;51.504;7.416;2023-10-08T19:21:57;3.88;;;2.80;;
13687;SDS011;6916;51.504;7.416;2023-10-08T19:32:00;4.50;;;2.40;;
13687;SDS011;6916;51.504;7.416;2023-10-08T19:42:05;4.60;;;2.90;;
13687;SDS011;6916;51.504;7.416;2023-10-08T19:52:08;5.33;;;2.40;;
13687;SDS011;6916;51.504;7.416;2023-10-08T20:02:15;4.30;;;3.00;;
13687;SDS011;6916;51.504;7.416;2023-10-08T20:12:18;7.13;;;4.05;;
13687;SDS011;6916;51.504;7.416;2023-10-08T20:22:23;4.28;;;2.97;;
13687;SDS011;6916;51.504;7.416;2023-10-08T20:32:27;5.50;;;3.17;;
13687;SDS011;6916;51.504;7.416;2023-10-08T20:42:34;6.80;;;3.60;;
13687;SDS011;6916;51.504;7.416;2023-10-08T20:52:39;3.97;;;3.28;;
13687;SDS011;6916;51.504;7.416;2023-10-08T21:02:45;4.77;;;3.43;;
13687;SDS011;6916;51.504;7.416;2023-10-08T21:12:48;4.40;;;3.42;;
13687;SDS011;6916;51.504;7.416;2023-10-08T21:22:53;5.63;;;3.87;;
13687;SDS011;6916;51.504;7.416;2023-10-08T21:32:59;7.45;;;3.40;;
13687;SDS011;6916;51.504;7.416;2023-10-08T21:43:04;7.75;;;3.83;;
13687;SDS011;6916;51.504;7.416;2023-10-08T21:53:09;5.35;;;3.03;;
13687;SDS011;6916;51.504;7.416;2023-10-08T22:03:14;4.93;;;3.13;;
13687;SDS011;6916;51.504;7.416;2023-10-08T22:13:16;4.65;;;3.05;;
13687;SDS011;6916;51.504;7.416;2023-10-08T22:23:22;6.53;;;4.28;;
13687;SDS011;6916;51.504;7.416;2023-10-08T22:33:26;9.35;;;5.38;;
13687;SDS011;6916;51.504;7.416;2023-10-08T22:43:38;10.40;;;6.07;;
13687;SDS011;6916;51.504;7.416;2023-10-08T22:53:43;13.38;;;7.35;;
13687;SDS011;6916;51.504;7.416;2023-10-08T23:03:49;18.80;;;8.65;;
13687;SDS011;6916;51.504;7.416;2023-10-08T23:13:52;20.45;;;9.38;;
13687;SDS011;6916;51.504;7.416;2023-10-08T23:23:58;18.75;;;9.73;;
13687;SDS011;6916;51.504;7.416;2023-10-08T23:34:05;17.13;;;8.45;;
13687;SDS011;6916;51.504;7.416;2023-10-08T23:44:15;14.63;;;8.98;;
13687;SDS011;6916;51.504;7.416;2023-10-08T23:54:26;18.45;;;9.27;;
